createdAt,value
2019-02-09T00:00:37.874Z,8.00
2019-02-09T00:03:08.232Z,8.00
2019-02-09T00:05:36.816Z,8.00
2019-02-09T00:08:07.554Z,8.00
2019-02-09T00:10:36.076Z,8.00
2019-02-09T00:13:04.893Z,8.00
2019-02-09T00:15:34.156Z,8.00
2019-02-09T00:18:02.678Z,8.10
2019-02-09T00:20:31.198Z,8.10
2019-02-09T00:22:59.777Z,8.10
2019-02-09T00:25:28.300Z,8.20
2019-02-09T00:27:56.748Z,8.20
2019-02-09T00:30:25.773Z,8.20
2019-02-09T00:32:54.224Z,8.20
2019-02-09T00:35:22.862Z,8.10
2019-02-09T00:37:51.471Z,8.10
2019-02-09T00:40:28.298Z,8.10
2019-02-09T00:42:56.852Z,8.00
2019-02-09T00:45:28.263Z,8.10
2019-02-09T00:47:56.972Z,8.10
2019-02-09T00:50:25.489Z,8.10
2019-02-09T00:52:54.234Z,8.10
2019-02-09T00:55:26.864Z,8.10
2019-02-09T00:57:55.887Z,8.10
2019-02-09T01:00:31.969Z,8.10
2019-02-09T01:03:01.526Z,8.10
2019-02-09T01:05:36.189Z,8.00
2019-02-09T01:08:05.273Z,8.00
2019-02-09T01:10:33.972Z,8.00
2019-02-09T01:13:02.608Z,8.00
2019-02-09T01:15:31.204Z,8.00
2019-02-09T01:18:00.124Z,8.00
2019-02-09T01:20:29.748Z,7.90
2019-02-09T01:22:58.753Z,7.90
2019-02-09T01:25:27.774Z,7.90
2019-02-09T01:27:56.383Z,7.80
2019-02-09T01:30:26.704Z,7.80
2019-02-09T01:32:55.225Z,7.90
2019-02-09T01:35:23.859Z,7.80
2019-02-09T01:37:53.155Z,7.80
2019-02-09T01:40:29.474Z,7.80
2019-02-09T01:42:57.930Z,7.80
2019-02-09T01:45:33.590Z,7.80
2019-02-09T01:48:02.180Z,7.70
2019-02-09T01:50:34.116Z,7.70
2019-02-09T01:53:02.649Z,7.70
2019-02-09T01:55:31.204Z,7.80
2019-02-09T01:57:59.819Z,7.80
2019-02-09T02:00:31.233Z,7.80
2019-02-09T02:02:59.855Z,7.80
2019-02-09T02:05:28.549Z,7.80
2019-02-09T02:07:57.189Z,7.90
2019-02-09T02:10:30.529Z,7.90
2019-02-09T02:12:59.511Z,7.80
2019-02-09T02:15:28.546Z,7.90
2019-02-09T02:17:57.246Z,7.90
2019-02-09T02:20:31.148Z,7.90
2019-02-09T02:22:59.604Z,7.90
2019-02-09T02:25:28.225Z,7.90
2019-02-09T02:27:58.285Z,7.90
2019-02-09T02:30:32.103Z,7.90
2019-02-09T02:33:00.784Z,7.90
2019-02-09T02:35:29.673Z,7.90
2019-02-09T02:37:58.397Z,8.00
2019-02-09T02:40:26.940Z,7.90
2019-02-09T02:42:55.468Z,7.90
2019-02-09T02:45:25.382Z,7.90
2019-02-09T02:47:53.917Z,7.80
2019-02-09T02:50:26.068Z,7.80
2019-02-09T02:52:54.565Z,7.80
2019-02-09T02:55:28.103Z,7.80
2019-02-09T02:57:56.615Z,7.80
2019-02-09T03:00:33.533Z,7.90
2019-02-09T03:03:02.899Z,7.90
2019-02-09T03:05:31.500Z,7.90
2019-02-09T03:08:00.132Z,7.90
2019-02-09T03:10:28.879Z,7.80
2019-02-09T03:12:57.364Z,7.80
2019-02-09T03:15:33.574Z,7.80
2019-02-09T03:18:02.208Z,7.80
2019-02-09T03:20:30.868Z,7.80
2019-02-09T03:22:59.415Z,7.90
2019-02-09T03:25:35.758Z,7.90
2019-02-09T03:28:04.482Z,8.00
2019-02-09T03:30:45.911Z,8.00
2019-02-09T03:33:03.214Z,7.90
2019-02-09T03:35:31.875Z,8.00
2019-02-09T03:38:01.943Z,8.10
2019-02-09T03:40:30.464Z,8.10
2019-02-09T03:42:58.939Z,8.10
2019-02-09T03:45:32.940Z,8.10
2019-02-09T03:48:02.111Z,8.10
2019-02-09T03:50:32.200Z,8.10
2019-02-09T03:53:01.247Z,8.00
2019-02-09T03:55:30.172Z,8.00
2019-02-09T03:57:59.132Z,8.00
2019-02-09T04:00:32.703Z,8.00
2019-02-09T04:03:02.755Z,8.00
2019-02-09T04:05:31.516Z,8.10
2019-02-09T04:08:00.100Z,8.10
2019-02-09T04:10:29.036Z,8.10
2019-02-09T04:12:57.560Z,8.10
2019-02-09T04:15:29.611Z,8.10
2019-02-09T04:17:58.225Z,8.10
2019-02-09T04:20:26.768Z,8.00
2019-02-09T04:22:55.360Z,8.00
2019-02-09T04:25:24.361Z,8.00
2019-02-09T04:27:53.053Z,8.00
2019-02-09T04:30:30.523Z,8.00
2019-02-09T04:32:59.438Z,8.00
2019-02-09T04:35:27.910Z,8.00
2019-02-09T04:37:56.471Z,8.00
2019-02-09T04:40:29.840Z,8.00
2019-02-09T04:42:58.755Z,7.90
2019-02-09T04:45:27.477Z,7.90
2019-02-09T04:47:55.961Z,7.90
2019-02-09T04:50:25.959Z,7.90
2019-02-09T04:52:54.522Z,7.90
2019-02-09T04:55:27.269Z,7.90
2019-02-09T04:57:55.988Z,8.00
2019-02-09T05:00:32.178Z,8.00
2019-02-09T05:03:00.815Z,8.00
2019-02-09T05:05:31.105Z,8.00
2019-02-09T05:07:59.700Z,8.00
2019-02-09T05:10:28.244Z,8.10
2019-02-09T05:12:56.694Z,8.10
2019-02-09T05:15:25.162Z,8.10
2019-02-09T05:17:53.772Z,8.20
2019-02-09T05:20:25.200Z,8.10
2019-02-09T05:22:54.898Z,8.10
2019-02-09T05:25:23.839Z,8.10
2019-02-09T05:27:52.359Z,8.10
2019-02-09T05:30:25.986Z,8.10
2019-02-09T05:32:55.143Z,8.10
2019-02-09T05:35:23.702Z,8.10
2019-02-09T05:37:52.245Z,8.10
2019-02-09T05:40:25.973Z,8.10
2019-02-09T05:42:54.498Z,8.10
2019-02-09T05:45:25.669Z,8.20
2019-02-09T05:47:54.262Z,8.10
2019-02-09T05:50:22.879Z,8.10
2019-02-09T05:52:51.425Z,8.10
2019-02-09T05:55:20.062Z,8.10
2019-02-09T05:57:49.092Z,8.10
2019-02-09T06:00:32.913Z,8.00
2019-02-09T06:03:01.519Z,8.00
2019-02-09T06:05:30.041Z,8.00
2019-02-09T06:07:58.524Z,8.00
2019-02-09T06:10:26.978Z,7.90
2019-02-09T06:12:55.499Z,7.80
2019-02-09T06:15:28.596Z,7.80
2019-02-09T06:17:57.143Z,7.80
2019-02-09T06:20:32.155Z,7.80
2019-02-09T06:23:00.639Z,7.80
2019-02-09T06:25:29.191Z,7.70
2019-02-09T06:27:57.702Z,7.70
2019-02-09T06:30:28.329Z,7.70
2019-02-09T06:32:56.926Z,7.60
2019-02-09T06:35:25.527Z,7.60
2019-02-09T06:37:54.204Z,7.60
2019-02-09T06:40:24.239Z,7.50
2019-02-09T06:42:53.076Z,7.50
2019-02-09T06:45:26.598Z,7.40
2019-02-09T06:48:15.968Z,7.40
2019-02-09T06:50:44.453Z,7.30
2019-02-09T06:53:13.025Z,7.30
2019-02-09T06:55:41.556Z,7.20
2019-02-09T06:58:10.195Z,7.30
2019-02-09T07:00:38.804Z,7.30
2019-02-09T07:03:07.394Z,7.20
2019-02-09T07:05:35.964Z,7.20
2019-02-09T07:08:04.732Z,7.10
2019-02-09T07:10:33.205Z,7.20
2019-02-09T07:13:01.728Z,7.20
2019-02-09T07:15:32.875Z,7.20
2019-02-09T07:18:01.325Z,7.10
2019-02-09T07:20:29.870Z,7.10
2019-02-09T07:22:58.475Z,7.10
2019-02-09T07:25:27.003Z,7.10
2019-02-09T07:27:55.479Z,7.20
2019-02-09T07:30:29.074Z,7.20
2019-02-09T07:32:58.928Z,7.20
2019-02-09T07:35:27.989Z,7.20
2019-02-09T07:37:56.580Z,7.20
2019-02-09T07:40:26.285Z,7.20
2019-02-09T07:42:55.907Z,7.20
2019-02-09T07:45:34.831Z,7.20
2019-02-09T07:48:03.432Z,7.10
2019-02-09T07:50:31.945Z,7.20
2019-02-09T07:53:00.425Z,7.20
2019-02-09T07:55:29.047Z,7.20
2019-02-09T07:57:57.551Z,7.20
2019-02-09T08:00:28.695Z,7.20
2019-02-09T08:02:58.249Z,7.20
2019-02-09T08:05:31.207Z,7.30
2019-02-09T08:08:00.015Z,7.40
2019-02-09T08:10:36.398Z,7.50
2019-02-09T08:13:10.093Z,7.60
2019-02-09T08:15:40.276Z,7.70
2019-02-09T08:18:09.541Z,7.90
2019-02-09T08:20:38.276Z,7.80
2019-02-09T08:23:09.041Z,7.80
2019-02-09T08:25:39.164Z,7.70
2019-02-09T08:28:12.855Z,7.70
2019-02-09T08:30:49.536Z,7.70
2019-02-09T08:33:17.993Z,7.60
2019-02-09T08:35:46.449Z,7.60
2019-02-09T08:38:16.487Z,7.60
2019-02-09T08:40:45.020Z,7.50
2019-02-09T08:43:13.625Z,7.50
2019-02-09T08:45:42.250Z,7.60
2019-02-09T08:48:10.771Z,7.70
2019-02-09T08:50:42.405Z,7.70
2019-02-09T08:53:10.964Z,7.70
2019-02-09T08:55:39.957Z,7.80
2019-02-09T08:58:08.477Z,7.90
2019-02-09T09:00:38.620Z,8.00
2019-02-09T09:03:07.485Z,8.00
2019-02-09T09:05:35.948Z,8.10
2019-02-09T09:08:06.782Z,8.30
2019-02-09T09:10:35.318Z,8.40
2019-02-09T09:13:04.813Z,8.60
2019-02-09T09:15:42.149Z,8.80
2019-02-09T09:18:12.337Z,8.80
2019-02-09T09:20:43.793Z,8.60
2019-02-09T09:23:12.350Z,8.60
2019-02-09T09:25:40.890Z,8.50
2019-02-09T09:28:09.416Z,8.40
2019-02-09T09:30:37.969Z,8.30
2019-02-09T09:33:06.644Z,8.30
2019-02-09T09:35:35.179Z,8.30
2019-02-09T09:38:03.710Z,8.30
2019-02-09T09:40:40.438Z,8.30
2019-02-09T09:43:09.365Z,8.30
2019-02-09T09:45:42.387Z,8.50
2019-02-09T09:48:16.580Z,8.60
2019-02-09T09:50:45.031Z,8.60
2019-02-09T09:53:13.623Z,8.60
2019-02-09T09:55:42.197Z,8.80
2019-02-09T09:58:10.788Z,8.80
2019-02-09T10:00:39.326Z,8.90
2019-02-09T10:03:07.823Z,8.90
2019-02-09T10:05:36.398Z,9.10
2019-02-09T10:08:07.031Z,9.30
2019-02-09T10:10:35.905Z,9.40
2019-02-09T10:13:05.305Z,9.40
2019-02-09T10:15:34.293Z,9.20
2019-02-09T10:18:02.752Z,9.20
2019-02-09T10:20:31.380Z,9.20
2019-02-09T10:22:59.912Z,9.60
2019-02-09T10:25:28.412Z,9.80
2019-02-09T10:27:57.716Z,10.10
2019-02-09T10:30:32.217Z,10.20
2019-02-09T10:33:01.077Z,10.50
2019-02-09T10:35:30.184Z,10.60
2019-02-09T10:37:59.084Z,10.60
2019-02-09T10:40:35.535Z,10.60
2019-02-09T10:43:06.745Z,10.70
2019-02-09T10:45:35.752Z,10.90
2019-02-09T10:48:06.874Z,11.00
2019-02-09T10:50:40.214Z,11.00
2019-02-09T10:53:08.910Z,11.10
2019-02-09T10:55:37.594Z,10.50
2019-02-09T10:58:07.103Z,10.80
2019-02-09T11:00:39.039Z,11.30
2019-02-09T11:03:08.596Z,10.90
2019-02-09T11:05:37.278Z,10.70
2019-02-09T11:08:06.868Z,10.80
2019-02-09T11:10:36.184Z,10.60
2019-02-09T11:13:06.279Z,10.40
2019-02-09T11:15:34.815Z,10.30
2019-02-09T11:18:03.390Z,10.10
2019-02-09T11:20:32.036Z,10.10
2019-02-09T11:23:00.560Z,10.10
2019-02-09T11:25:29.108Z,10.00
2019-02-09T11:27:57.573Z,9.90
2019-02-09T11:30:28.062Z,9.80
2019-02-09T11:33:02.100Z,9.80
2019-02-09T11:35:26.955Z,9.80
2019-02-09T11:37:55.513Z,9.70
2019-02-09T11:40:29.608Z,9.60
2019-02-09T11:42:59.208Z,9.50
2019-02-09T11:45:33.705Z,9.30
2019-02-09T11:48:02.190Z,9.20
2019-02-09T11:50:30.648Z,9.10
2019-02-09T11:52:59.394Z,9.10
2019-02-09T11:55:28.003Z,9.10
2019-02-09T11:57:56.512Z,9.10
2019-02-09T12:00:30.507Z,9.10
2019-02-09T12:03:03.898Z,9.10
2019-02-09T12:05:29.551Z,9.20
2019-02-09T12:07:58.044Z,9.30
2019-02-09T12:10:28.651Z,9.40
2019-02-09T12:12:57.314Z,9.60
2019-02-09T12:15:30.939Z,9.80
2019-02-09T12:18:00.112Z,10.00
2019-02-09T12:20:28.644Z,10.10
2019-02-09T12:22:57.270Z,10.10
2019-02-09T12:25:28.736Z,10.10
2019-02-09T12:27:57.275Z,10.20
2019-02-09T12:30:28.820Z,10.30
2019-02-09T12:32:57.360Z,10.30
2019-02-09T12:35:25.963Z,10.40
2019-02-09T12:37:54.532Z,10.40
2019-02-09T12:40:25.805Z,10.50
2019-02-09T12:42:54.432Z,10.50
2019-02-09T12:45:25.374Z,10.60
2019-02-09T12:47:54.015Z,10.60
2019-02-09T12:50:27.373Z,10.60
2019-02-09T12:52:56.580Z,10.60
2019-02-09T12:55:25.853Z,10.80
2019-02-09T12:57:54.398Z,11.00
2019-02-09T13:00:28.334Z,11.00
2019-02-09T13:02:59.276Z,11.20
2019-02-09T13:05:27.812Z,11.20
2019-02-09T13:07:56.291Z,11.10
2019-02-09T13:10:24.901Z,11.00
2019-02-09T13:13:12.824Z,10.90
2019-02-09T13:15:41.405Z,10.90
2019-02-09T13:18:10.071Z,10.80
2019-02-09T13:20:38.634Z,10.80
2019-02-09T13:23:08.440Z,10.80
2019-02-09T13:25:36.903Z,10.70
2019-02-09T13:28:06.063Z,10.60
2019-02-09T13:30:37.236Z,10.70
2019-02-09T13:33:05.840Z,10.70
2019-02-09T13:35:34.468Z,10.70
2019-02-09T13:38:02.940Z,10.60
2019-02-09T13:40:31.473Z,10.60
2019-02-09T13:43:00.130Z,10.50
2019-02-09T13:45:46.389Z,10.50
2019-02-09T13:48:15.843Z,10.40
2019-02-09T13:50:44.304Z,10.50
2019-02-09T13:53:12.905Z,10.80
2019-02-09T13:55:41.418Z,11.10
2019-02-09T13:58:09.947Z,10.90
2019-02-09T14:00:38.545Z,10.70
2019-02-09T14:03:08.176Z,10.50
2019-02-09T14:05:36.708Z,10.40
2019-02-09T14:08:06.311Z,10.20
2019-02-09T14:10:34.848Z,9.90
2019-02-09T14:13:03.328Z,9.60
2019-02-09T14:15:37.342Z,9.40
2019-02-09T14:18:09.102Z,9.50
2019-02-09T14:20:37.674Z,9.60
2019-02-09T14:23:06.831Z,9.60
2019-02-09T14:25:36.121Z,9.50
2019-02-09T14:28:06.509Z,9.60
2019-02-09T14:30:37.770Z,9.80
2019-02-09T14:33:08.912Z,9.80
2019-02-09T14:35:38.868Z,9.70
2019-02-09T14:38:07.730Z,9.50
2019-02-09T14:40:36.386Z,9.30
2019-02-09T14:43:06.228Z,9.20
2019-02-09T14:45:40.334Z,9.20
2019-02-09T14:48:09.058Z,9.20
2019-02-09T14:50:37.593Z,9.10
2019-02-09T14:53:25.417Z,9.10
2019-02-09T14:55:53.870Z,9.10
2019-02-09T14:58:22.509Z,9.10
2019-02-09T15:00:53.793Z,9.10
2019-02-09T15:03:26.982Z,9.00
2019-02-09T15:05:52.593Z,8.80
2019-02-09T15:08:21.194Z,8.70
2019-02-09T15:10:49.722Z,8.70
2019-02-09T15:13:18.285Z,8.60
2019-02-09T15:15:55.615Z,8.60
2019-02-09T15:18:26.096Z,8.70
2019-02-09T15:21:08.720Z,8.80
2019-02-09T15:23:37.223Z,8.90
2019-02-09T15:26:07.325Z,8.90
2019-02-09T15:28:36.356Z,9.00
2019-02-09T15:31:05.214Z,9.00
2019-02-09T15:33:35.402Z,9.00
2019-02-09T15:36:04.425Z,9.10
2019-02-09T15:38:32.891Z,9.10
2019-02-09T15:41:01.429Z,9.20
2019-02-09T15:43:29.912Z,9.20
2019-02-09T15:45:58.368Z,9.30
2019-02-09T15:48:26.852Z,9.20
2019-02-09T15:50:55.336Z,9.20
2019-02-09T15:53:23.827Z,9.20
2019-02-09T15:55:52.327Z,9.20
2019-02-09T15:58:21.021Z,9.20
2019-02-09T16:00:49.557Z,9.20
2019-02-09T16:03:18.180Z,9.30
2019-02-09T16:05:47.052Z,9.30
2019-02-09T16:08:17.413Z,9.40
2019-02-09T16:10:45.970Z,9.40
2019-02-09T16:13:14.485Z,9.40
2019-02-09T16:15:43.005Z,9.40
2019-02-09T16:18:11.697Z,9.50
2019-02-09T16:20:40.266Z,9.40
2019-02-09T16:23:08.793Z,9.40
2019-02-09T16:25:37.393Z,9.40
2019-02-09T16:28:05.945Z,9.30
2019-02-09T16:30:34.553Z,9.30
2019-02-09T16:33:03.353Z,9.20
2019-02-09T16:35:32.998Z,9.10
2019-02-09T16:38:01.900Z,9.10
2019-02-09T16:40:34.678Z,9.00
2019-02-09T16:43:03.273Z,9.00
2019-02-09T16:45:36.632Z,9.00
2019-02-09T16:48:07.574Z,8.90
2019-02-09T16:50:36.125Z,8.80
2019-02-09T16:53:08.544Z,8.80
2019-02-09T16:55:37.080Z,8.70
2019-02-09T16:58:06.832Z,8.70
2019-02-09T17:00:37.913Z,8.70
2019-02-09T17:03:07.977Z,8.60
2019-02-09T17:05:36.607Z,8.60
2019-02-09T17:08:08.326Z,8.60
2019-02-09T17:10:37.390Z,8.60
2019-02-09T17:13:07.262Z,8.60
2019-02-09T17:15:35.913Z,8.50
2019-02-09T17:18:05.745Z,8.50
2019-02-09T17:20:34.338Z,8.50
2019-02-09T17:23:02.829Z,8.40
2019-02-09T17:25:31.498Z,8.50
2019-02-09T17:28:00.064Z,8.40
2019-02-09T17:30:33.834Z,8.40
2019-02-09T17:33:02.372Z,8.40
2019-02-09T17:35:30.852Z,8.40
2019-02-09T17:37:59.440Z,8.40
2019-02-09T17:40:30.795Z,8.40
2019-02-09T17:42:59.885Z,8.40
2019-02-09T17:45:34.000Z,8.40
2019-02-09T17:48:02.526Z,8.40
2019-02-09T17:50:30.996Z,8.40
2019-02-09T17:53:00.353Z,8.40
2019-02-09T17:55:28.990Z,8.40
2019-02-09T17:57:57.468Z,8.50
2019-02-09T18:00:37.176Z,8.40
2019-02-09T18:03:05.713Z,8.30
2019-02-09T18:05:34.795Z,8.40
2019-02-09T18:08:03.862Z,8.30
2019-02-09T18:10:32.318Z,8.30
2019-02-09T18:13:00.809Z,8.30
2019-02-09T18:15:29.641Z,8.30
2019-02-09T18:17:58.255Z,8.30
2019-02-09T18:20:27.955Z,8.30
2019-02-09T18:22:56.954Z,8.30
2019-02-09T18:25:25.493Z,8.30
2019-02-09T18:27:54.057Z,8.20
2019-02-09T18:30:27.932Z,8.20
2019-02-09T18:32:56.452Z,8.20
2019-02-09T18:35:24.986Z,8.20
2019-02-09T18:37:53.679Z,8.20
2019-02-09T18:40:27.050Z,8.20
2019-02-09T18:42:55.599Z,8.20
2019-02-09T18:45:27.412Z,8.20
2019-02-09T18:47:56.189Z,8.20
2019-02-09T18:50:26.922Z,8.20
2019-02-09T18:52:56.717Z,8.20
2019-02-09T18:55:27.308Z,8.20
2019-02-09T18:57:56.063Z,8.20
2019-02-09T19:00:32.674Z,8.20
2019-02-09T19:03:01.876Z,8.20
2019-02-09T19:05:30.451Z,8.20
2019-02-09T19:07:58.922Z,8.20
2019-02-09T19:10:29.308Z,8.20
2019-02-09T19:12:57.895Z,8.20
2019-02-09T19:15:27.824Z,8.20
2019-02-09T19:17:57.615Z,8.20
2019-02-09T19:20:34.893Z,8.10
2019-02-09T19:23:03.499Z,8.10
2019-02-09T19:25:32.254Z,8.10
2019-02-09T19:28:00.803Z,8.00
2019-02-09T19:30:29.672Z,8.10
2019-02-09T19:32:59.888Z,8.10
2019-02-09T19:35:28.465Z,8.10
2019-02-09T19:37:57.903Z,8.00
2019-02-09T19:40:27.656Z,8.10
2019-02-09T19:42:56.155Z,8.00
2019-02-09T19:45:27.728Z,8.10
2019-02-09T19:47:56.352Z,8.10
2019-02-09T19:50:44.269Z,8.10
2019-02-09T19:53:12.797Z,8.10
2019-02-09T19:55:41.333Z,8.00
2019-02-09T19:58:11.533Z,8.00
2019-02-09T20:00:45.218Z,8.00
2019-02-09T20:03:13.909Z,8.00
2019-02-09T20:05:42.449Z,7.90
2019-02-09T20:08:11.446Z,8.00
2019-02-09T20:10:43.621Z,7.90
2019-02-09T20:13:13.450Z,8.00
2019-02-09T20:15:41.982Z,7.90
2019-02-09T20:18:11.590Z,7.90
2019-02-09T20:20:46.737Z,7.90
2019-02-09T20:23:10.547Z,7.90
2019-02-09T20:25:39.009Z,7.90
2019-02-09T20:28:08.226Z,7.90
2019-02-09T20:30:41.093Z,7.90
2019-02-09T20:33:09.796Z,7.90
2019-02-09T20:35:38.429Z,7.90
2019-02-09T20:38:10.134Z,7.90
2019-02-09T20:40:47.859Z,7.80
2019-02-09T20:43:23.152Z,7.80
2019-02-09T20:46:11.047Z,7.80
2019-02-09T20:48:39.811Z,7.80
2019-02-09T20:51:08.345Z,7.80
2019-02-09T20:53:36.859Z,7.80
2019-02-09T20:56:05.544Z,7.80
2019-02-09T20:58:35.553Z,7.80
2019-02-09T21:01:05.014Z,7.80
2019-02-09T21:03:33.478Z,7.70
2019-02-09T21:06:01.998Z,7.70
2019-02-09T21:08:30.875Z,7.80
2019-02-09T21:10:59.337Z,7.70
2019-02-09T21:13:27.853Z,7.70
2019-02-09T21:15:56.337Z,7.70
2019-02-09T21:18:25.464Z,7.80
2019-02-09T21:20:53.941Z,7.70
2019-02-09T21:23:22.473Z,7.70
2019-02-09T21:25:51.008Z,7.80
2019-02-09T21:28:19.948Z,7.80
2019-02-09T21:30:48.563Z,7.70
2019-02-09T21:33:17.093Z,7.80
2019-02-09T21:35:45.557Z,7.80
2019-02-09T21:38:14.125Z,7.80
2019-02-09T21:40:42.650Z,7.90
2019-02-09T21:43:11.329Z,7.90
2019-02-09T21:45:45.035Z,8.00
2019-02-09T21:48:10.076Z,8.00
2019-02-09T21:50:39.079Z,8.10
2019-02-09T21:53:08.606Z,8.10
2019-02-09T21:55:37.812Z,8.10
2019-02-09T21:58:08.122Z,8.10
2019-02-09T22:00:39.145Z,8.10
2019-02-09T22:03:09.108Z,8.20
2019-02-09T22:05:37.632Z,8.20
2019-02-09T22:08:08.417Z,8.20
2019-02-09T22:10:36.941Z,8.20
2019-02-09T22:13:05.731Z,8.30
2019-02-09T22:15:38.625Z,8.20
2019-02-09T22:18:06.160Z,8.20
2019-02-09T22:20:34.699Z,8.20
2019-02-09T22:23:03.353Z,8.20
2019-02-09T22:25:31.948Z,8.20
2019-02-09T22:28:00.416Z,8.30
2019-02-09T22:30:33.038Z,8.30
2019-02-09T22:33:01.742Z,8.30
2019-02-09T22:35:30.894Z,8.30
2019-02-09T22:37:59.781Z,8.30
2019-02-09T22:40:30.945Z,8.40
2019-02-09T22:42:59.476Z,8.30
2019-02-09T22:45:30.311Z,8.30
2019-02-09T22:48:00.441Z,8.30
2019-02-09T22:50:31.970Z,8.30
2019-02-09T22:53:01.471Z,8.30
2019-02-09T22:55:30.283Z,8.30
2019-02-09T22:57:58.803Z,8.30
2019-02-09T23:00:58.890Z,8.30
2019-02-09T23:03:36.386Z,8.30
2019-02-09T23:06:33.472Z,8.30
2019-02-09T23:09:02.199Z,8.20
2019-02-09T23:11:30.728Z,8.20
2019-02-09T23:13:59.276Z,8.30
2019-02-09T23:16:27.735Z,8.30
2019-02-09T23:18:56.290Z,8.20
2019-02-09T23:21:24.804Z,8.20
2019-02-09T23:23:53.335Z,8.20
2019-02-09T23:26:21.790Z,8.20
2019-02-09T23:28:50.287Z,8.20
2019-02-09T23:31:18.743Z,8.20
2019-02-09T23:33:47.204Z,8.20
2019-02-09T23:36:16.612Z,8.20
2019-02-09T23:38:45.576Z,8.30
2019-02-09T23:41:14.036Z,8.20
2019-02-09T23:43:42.605Z,8.20
2019-02-09T23:46:11.153Z,8.30
2019-02-09T23:48:39.628Z,8.30
2019-02-09T23:51:08.117Z,8.30
2019-02-09T23:53:36.572Z,8.40
2019-02-09T23:56:05.033Z,8.40
2019-02-09T23:58:33.521Z,8.40
